PRCAJ SAZS-SAVE
Flight info
| Callsign | PRCAJ |
|---|---|
| Flight time | N/A |
| Altitude | 35000 |
| Route | SAZS/29 TORE2C TORES DCT ANSOT |
| Aircraft | B737/M-SDE2E3FGHIRWXY/LB1 |
Departure
| Time | 2026-04-29 03:35 |
|---|---|
| Airport | Teniente Luis Candelaria International Airport (SAZS) |
Arrival
| Time | N/A |
|---|---|
| Airport | Esquel Brigadier Antonio Parodi International Airport (SAVE) |
| Time | Latitude | Longitude | Altitude | Speed | Heading |
|---|---|---|---|---|---|
| 2026-04-29 02:53 | -41.14652 | -71.16158 | 2784 ft | 0 kts | 25° |
| 2026-04-29 03:22 | -41.14657 | -71.16161 | 2784 ft | 1 kts | 2° |
| 2026-04-29 03:22 | -41.14672 | -71.16161 | 2784 ft | 2 kts | 6° |
| 2026-04-29 03:22 | -41.14687 | -71.16163 | 2784 ft | 2 kts | 4° |
| 2026-04-29 03:23 | -41.14702 | -71.16164 | 2784 ft | 2 kts | 5° |
| 2026-04-29 03:23 | -41.14716 | -71.16166 | 2784 ft | 2 kts | 4° |
| 2026-04-29 03:23 | -41.14731 | -71.16167 | 2784 ft | 2 kts | 4° |
| 2026-04-29 03:23 | -41.14746 | -71.16169 | 2784 ft | 2 kts | 4° |
| 2026-04-29 03:24 | -41.14761 | -71.16170 | 2784 ft | 2 kts | 4° |
| 2026-04-29 03:24 | -41.14776 | -71.16172 | 2784 ft | 2 kts | 4° |
| 2026-04-29 03:24 | -41.14791 | -71.16174 | 2784 ft | 2 kts | 4° |
| 2026-04-29 03:24 | -41.14802 | -71.16174 | 2784 ft | 0 kts | 17° |
| 2026-04-29 03:25 | -41.14807 | -71.16180 | 2784 ft | 1 kts | 76° |
| 2026-04-29 03:25 | -41.14808 | -71.16188 | 2784 ft | 0 kts | 115° |
| 2026-04-29 03:25 | -41.14804 | -71.16196 | 2784 ft | 1 kts | 116° |
| 2026-04-29 03:27 | -41.14807 | -71.16188 | 2784 ft | 5 kts | 116° |
| 2026-04-29 03:27 | -41.14844 | -71.16087 | 2784 ft | 15 kts | 112° |
| 2026-04-29 03:27 | -41.14883 | -71.15971 | 2784 ft | 13 kts | 115° |
| 2026-04-29 03:28 | -41.14920 | -71.15862 | 2784 ft | 12 kts | 114° |
| 2026-04-29 03:28 | -41.14956 | -71.15760 | 2784 ft | 11 kts | 115° |
| 2026-04-29 03:28 | -41.14991 | -71.15660 | 2784 ft | 11 kts | 114° |
| 2026-04-29 03:28 | -41.15026 | -71.15559 | 2784 ft | 13 kts | 114° |
| 2026-04-29 03:29 | -41.15069 | -71.15435 | 2784 ft | 15 kts | 115° |
| 2026-04-29 03:29 | -41.15115 | -71.15305 | 2784 ft | 16 kts | 115° |
| 2026-04-29 03:29 | -41.15160 | -71.15172 | 2784 ft | 14 kts | 114° |
| 2026-04-29 03:29 | -41.15199 | -71.15057 | 2784 ft | 12 kts | 114° |
| 2026-04-29 03:30 | -41.15235 | -71.14954 | 2784 ft | 11 kts | 114° |
| 2026-04-29 03:30 | -41.15269 | -71.14856 | 2784 ft | 11 kts | 114° |
| 2026-04-29 03:30 | -41.15303 | -71.14754 | 2784 ft | 12 kts | 115° |
| 2026-04-29 03:30 | -41.15341 | -71.14650 | 2784 ft | 12 kts | 115° |
| 2026-04-29 03:31 | -41.15406 | -71.14462 | 2784 ft | 8 kts | 127° |
| 2026-04-29 03:31 | -41.15451 | -71.14435 | 2784 ft | 5 kts | 189° |
| 2026-04-29 03:31 | -41.15461 | -71.14439 | 2784 ft | 0 kts | 202° |
| 2026-04-29 03:33 | -41.15463 | -71.14441 | 2784 ft | 1 kts | 202° |
| 2026-04-29 03:33 | -41.15493 | -71.14457 | 2784 ft | 6 kts | 204° |
| 2026-04-29 03:33 | -41.15536 | -71.14484 | 2784 ft | 5 kts | 205° |
| 2026-04-29 03:33 | -41.15543 | -71.14514 | 2784 ft | 3 kts | 280° |
| 2026-04-29 03:34 | -41.15540 | -71.14526 | 2784 ft | 0 kts | 291° |
| 2026-04-29 03:34 | -41.15490 | -71.14676 | 2784 ft | 54 kts | 294° |
| 2026-04-29 03:34 | -41.15217 | -71.15466 | 2802 ft | 130 kts | 293° |
| 2026-04-29 03:35 | -41.14829 | -71.16648 | 3395 ft | 152 kts | 294° |
| 2026-04-29 03:35 | -41.14436 | -71.17770 | 4188 ft | 160 kts | 294° |
| 2026-04-29 03:35 | -41.13972 | -71.19137 | 5016 ft | 171 kts | 291° |
| 2026-04-29 03:35 | -41.13463 | -71.20618 | 5753 ft | 187 kts | 291° |
| 2026-04-29 03:36 | -41.12919 | -71.22219 | 6564 ft | 199 kts | 291° |
| 2026-04-29 03:36 | -41.12386 | -71.23817 | 7247 ft | 215 kts | 291° |
| 2026-04-29 03:36 | -41.11750 | -71.25700 | 8032 ft | 230 kts | 291° |
| 2026-04-29 03:36 | -41.11059 | -71.27692 | 8367 ft | 254 kts | 292° |
| 2026-04-29 03:37 | -41.10309 | -71.29896 | 8292 ft | 259 kts | 291° |
| 2026-04-29 03:37 | -41.09594 | -71.32013 | 8294 ft | 246 kts | 291° |
| 2026-04-29 03:37 | -41.08896 | -71.34079 | 8295 ft | 247 kts | 291° |
| 2026-04-29 03:37 | -41.08216 | -71.36180 | 8295 ft | 247 kts | 285° |
| 2026-04-29 03:38 | -41.08096 | -71.38390 | 8292 ft | 242 kts | 254° |
| 2026-04-29 03:38 | -41.08904 | -71.40228 | 8296 ft | 242 kts | 223° |
| 2026-04-29 03:38 | -41.10429 | -71.41157 | 8294 ft | 254 kts | 188° |
| 2026-04-29 03:38 | -41.12204 | -71.40907 | 8297 ft | 260 kts | 170° |
| 2026-04-29 03:39 | -41.13967 | -71.40562 | 8294 ft | 257 kts | 181° |
| 2026-04-29 03:39 | -41.15765 | -71.40602 | 8297 ft | 257 kts | 184° |
| 2026-04-29 03:39 | -41.17527 | -71.40517 | 8250 ft | 258 kts | 173° |
| 2026-04-29 03:39 | -41.19242 | -71.39802 | 8266 ft | 261 kts | 162° |